sensor_id;sensor_type;location;lat;lon;timestamp;temperature;humidity
2625;DHT22;1322;53.256;10.386;2023-04-06T00:00:56;5.30;99.90
2625;DHT22;1322;53.256;10.386;2023-04-06T00:03:21;5.30;99.90
2625;DHT22;1322;53.256;10.386;2023-04-06T00:05:48;5.30;99.90
2625;DHT22;1322;53.256;10.386;2023-04-06T00:08:14;5.30;99.90
2625;DHT22;1322;53.256;10.386;2023-04-06T00:10:40;5.20;99.90
2625;DHT22;1322;53.256;10.386;2023-04-06T00:13:06;5.20;99.90
2625;DHT22;1322;53.256;10.386;2023-04-06T00:15:32;5.20;99.90
2625;DHT22;1322;53.256;10.386;2023-04-06T00:17:58;5.10;99.90
2625;DHT22;1322;53.256;10.386;2023-04-06T00:20:23;5.10;99.90
2625;DHT22;1322;53.256;10.386;2023-04-06T00:22:50;5.10;99.90
2625;DHT22;1322;53.256;10.386;2023-04-06T00:25:16;5.10;99.90
2625;DHT22;1322;53.256;10.386;2023-04-06T00:27:42;5.00;99.90
2625;DHT22;1322;53.256;10.386;2023-04-06T00:30:08;5.00;99.90
2625;DHT22;1322;53.256;10.386;2023-04-06T00:32:34;5.00;99.90
2625;DHT22;1322;53.256;10.386;2023-04-06T00:35:05;4.90;99.90
2625;DHT22;1322;53.256;10.386;2023-04-06T00:37:31;4.90;99.90
2625;DHT22;1322;53.256;10.386;2023-04-06T00:39:57;4.80;99.90
2625;DHT22;1322;53.256;10.386;2023-04-06T00:42:23;4.80;99.90
2625;DHT22;1322;53.256;10.386;2023-04-06T00:44:57;4.70;99.90
2625;DHT22;1322;53.256;10.386;2023-04-06T00:47:23;4.70;99.90
2625;DHT22;1322;53.256;10.386;2023-04-06T00:49:51;4.70;99.90
2625;DHT22;1322;53.256;10.386;2023-04-06T00:52:17;4.60;99.90
2625;DHT22;1322;53.256;10.386;2023-04-06T00:54:43;4.60;99.90
2625;DHT22;1322;53.256;10.386;2023-04-06T00:57:11;4.60;99.90
2625;DHT22;1322;53.256;10.386;2023-04-06T00:59:36;4.60;99.90
2625;DHT22;1322;53.256;10.386;2023-04-06T01:02:02;4.60;99.90
2625;DHT22;1322;53.256;10.386;2023-04-06T01:04:28;4.40;99.90
2625;DHT22;1322;53.256;10.386;2023-04-06T01:06:54;4.40;99.90
2625;DHT22;1322;53.256;10.386;2023-04-06T01:09:19;4.40;99.90
2625;DHT22;1322;53.256;10.386;2023-04-06T01:11:46;4.40;99.90
2625;DHT22;1322;53.256;10.386;2023-04-06T01:14:14;4.40;99.90
2625;DHT22;1322;53.256;10.386;2023-04-06T01:16:41;4.30;99.90
2625;DHT22;1322;53.256;10.386;2023-04-06T01:19:11;4.20;99.90
2625;DHT22;1322;53.256;10.386;2023-04-06T01:21:38;4.10;99.90
2625;DHT22;1322;53.256;10.386;2023-04-06T01:24:04;4.10;99.90
2625;DHT22;1322;53.256;10.386;2023-04-06T01:26:31;4.00;99.90
2625;DHT22;1322;53.256;10.386;2023-04-06T01:28:57;3.90;99.90
2625;DHT22;1322;53.256;10.386;2023-04-06T01:31:26;3.80;99.90
2625;DHT22;1322;53.256;10.386;2023-04-06T01:33:52;3.80;99.90
2625;DHT22;1322;53.256;10.386;2023-04-06T01:36:18;3.80;99.90
2625;DHT22;1322;53.256;10.386;2023-04-06T01:38:45;3.80;99.90
2625;DHT22;1322;53.256;10.386;2023-04-06T01:41:11;3.70;99.90
2625;DHT22;1322;53.256;10.386;2023-04-06T01:43:37;3.70;99.90
2625;DHT22;1322;53.256;10.386;2023-04-06T01:46:03;3.70;99.90
2625;DHT22;1322;53.256;10.386;2023-04-06T01:48:28;3.70;99.90
2625;DHT22;1322;53.256;10.386;2023-04-06T01:50:54;3.70;99.90
2625;DHT22;1322;53.256;10.386;2023-04-06T01:53:21;3.60;99.90
2625;DHT22;1322;53.256;10.386;2023-04-06T01:55:47;3.50;99.90
2625;DHT22;1322;53.256;10.386;2023-04-06T01:58:13;3.40;99.90
2625;DHT22;1322;53.256;10.386;2023-04-06T02:00:39;3.30;99.90
2625;DHT22;1322;53.256;10.386;2023-04-06T02:03:05;3.20;99.90
2625;DHT22;1322;53.256;10.386;2023-04-06T02:05:32;3.10;99.90
2625;DHT22;1322;53.256;10.386;2023-04-06T02:08:06;3.20;99.90
2625;DHT22;1322;53.256;10.386;2023-04-06T02:10:32;3.20;99.90
2625;DHT22;1322;53.256;10.386;2023-04-06T02:12:58;3.10;99.90
2625;DHT22;1322;53.256;10.386;2023-04-06T02:15:24;3.10;99.90
2625;DHT22;1322;53.256;10.386;2023-04-06T02:17:51;3.00;99.90
2625;DHT22;1322;53.256;10.386;2023-04-06T02:20:16;2.90;99.90
2625;DHT22;1322;53.256;10.386;2023-04-06T02:22:42;2.90;99.90
2625;DHT22;1322;53.256;10.386;2023-04-06T02:25:08;3.00;99.90
2625;DHT22;1322;53.256;10.386;2023-04-06T02:27:34;3.00;99.90
2625;DHT22;1322;53.256;10.386;2023-04-06T02:30:00;2.90;99.90
2625;DHT22;1322;53.256;10.386;2023-04-06T02:32:26;2.90;99.90
2625;DHT22;1322;53.256;10.386;2023-04-06T02:34:52;2.60;99.90
2625;DHT22;1322;53.256;10.386;2023-04-06T02:37:17;2.60;99.90
2625;DHT22;1322;53.256;10.386;2023-04-06T02:39:43;2.70;99.90
2625;DHT22;1322;53.256;10.386;2023-04-06T02:42:09;2.60;99.90
2625;DHT22;1322;53.256;10.386;2023-04-06T02:44:35;2.60;99.90
2625;DHT22;1322;53.256;10.386;2023-04-06T02:47:00;2.60;99.90
2625;DHT22;1322;53.256;10.386;2023-04-06T02:49:26;2.70;99.90
2625;DHT22;1322;53.256;10.386;2023-04-06T02:51:52;2.70;99.90
2625;DHT22;1322;53.256;10.386;2023-04-06T02:54:17;2.70;99.90
2625;DHT22;1322;53.256;10.386;2023-04-06T02:56:43;2.70;99.90
2625;DHT22;1322;53.256;10.386;2023-04-06T02:59:09;2.80;99.90
2625;DHT22;1322;53.256;10.386;2023-04-06T03:01:35;2.60;99.90
2625;DHT22;1322;53.256;10.386;2023-04-06T03:04:02;2.60;99.90
2625;DHT22;1322;53.256;10.386;2023-04-06T03:06:27;2.60;99.90
2625;DHT22;1322;53.256;10.386;2023-04-06T03:08:53;2.70;99.90
2625;DHT22;1322;53.256;10.386;2023-04-06T03:11:19;2.70;99.90
2625;DHT22;1322;53.256;10.386;2023-04-06T03:13:44;2.80;99.90
2625;DHT22;1322;53.256;10.386;2023-04-06T03:16:10;2.80;99.90
2625;DHT22;1322;53.256;10.386;2023-04-06T03:18:36;2.70;99.90
2625;DHT22;1322;53.256;10.386;2023-04-06T03:21:02;2.80;99.90
2625;DHT22;1322;53.256;10.386;2023-04-06T03:23:27;2.80;99.90
2625;DHT22;1322;53.256;10.386;2023-04-06T03:25:53;2.80;99.90
2625;DHT22;1322;53.256;10.386;2023-04-06T03:28:19;2.80;99.90
2625;DHT22;1322;53.256;10.386;2023-04-06T03:30:45;2.80;99.90
2625;DHT22;1322;53.256;10.386;2023-04-06T03:33:11;2.80;99.90
2625;DHT22;1322;53.256;10.386;2023-04-06T03:35:36;2.80;99.90
2625;DHT22;1322;53.256;10.386;2023-04-06T03:38:03;2.70;99.90
2625;DHT22;1322;53.256;10.386;2023-04-06T03:40:29;2.70;99.90
2625;DHT22;1322;53.256;10.386;2023-04-06T03:42:55;2.80;99.90
2625;DHT22;1322;53.256;10.386;2023-04-06T03:45:21;2.70;99.90
2625;DHT22;1322;53.256;10.386;2023-04-06T03:47:47;2.70;99.90
2625;DHT22;1322;53.256;10.386;2023-04-06T03:50:12;2.70;99.90
2625;DHT22;1322;53.256;10.386;2023-04-06T03:52:38;2.70;99.90
2625;DHT22;1322;53.256;10.386;2023-04-06T03:55:04;2.70;99.90
2625;DHT22;1322;53.256;10.386;2023-04-06T03:57:30;2.70;99.90
2625;DHT22;1322;53.256;10.386;2023-04-06T03:59:59;2.70;99.90
2625;DHT22;1322;53.256;10.386;2023-04-06T04:02:25;2.60;99.90
2625;DHT22;1322;53.256;10.386;2023-04-06T04:04:50;2.60;99.90
2625;DHT22;1322;53.256;10.386;2023-04-06T04:07:16;2.60;99.90
2625;DHT22;1322;53.256;10.386;2023-04-06T04:09:42;2.60;99.90
2625;DHT22;1322;53.256;10.386;2023-04-06T04:12:07;2.60;99.90
2625;DHT22;1322;53.256;10.386;2023-04-06T04:14:33;2.60;99.90
2625;DHT22;1322;53.256;10.386;2023-04-06T04:16:59;2.50;99.90
2625;DHT22;1322;53.256;10.386;2023-04-06T04:19:25;2.50;99.90
2625;DHT22;1322;53.256;10.386;2023-04-06T04:21:50;2.40;99.90
2625;DHT22;1322;53.256;10.386;2023-04-06T04:24:16;2.40;99.90
2625;DHT22;1322;53.256;10.386;2023-04-06T04:26:42;2.40;99.90
2625;DHT22;1322;53.256;10.386;2023-04-06T04:29:08;2.50;99.90
2625;DHT22;1322;53.256;10.386;2023-04-06T04:31:33;2.50;99.90
2625;DHT22;1322;53.256;10.386;2023-04-06T04:34:00;2.40;99.90
2625;DHT22;1322;53.256;10.386;2023-04-06T04:36:25;2.40;99.90
2625;DHT22;1322;53.256;10.386;2023-04-06T04:38:52;2.50;99.90
2625;DHT22;1322;53.256;10.386;2023-04-06T04:41:18;2.50;99.90
2625;DHT22;1322;53.256;10.386;2023-04-06T04:43:43;2.50;99.90
2625;DHT22;1322;53.256;10.386;2023-04-06T04:46:10;2.50;99.90
2625;DHT22;1322;53.256;10.386;2023-04-06T04:48:35;2.50;99.90
2625;DHT22;1322;53.256;10.386;2023-04-06T04:51:01;2.50;99.90
2625;DHT22;1322;53.256;10.386;2023-04-06T04:53:27;2.50;99.90
2625;DHT22;1322;53.256;10.386;2023-04-06T04:55:52;2.60;99.90
2625;DHT22;1322;53.256;10.386;2023-04-06T04:58:18;2.60;99.90
2625;DHT22;1322;53.256;10.386;2023-04-06T05:00:45;2.60;99.90
2625;DHT22;1322;53.256;10.386;2023-04-06T05:03:18;2.70;99.90
2625;DHT22;1322;53.256;10.386;2023-04-06T05:05:46;2.70;99.90
2625;DHT22;1322;53.256;10.386;2023-04-06T05:08:12;2.80;99.90
2625;DHT22;1322;53.256;10.386;2023-04-06T05:10:37;2.90;99.90
2625;DHT22;1322;53.256;10.386;2023-04-06T05:13:03;2.90;99.90
2625;DHT22;1322;53.256;10.386;2023-04-06T05:15:29;3.00;99.90
2625;DHT22;1322;53.256;10.386;2023-04-06T05:17:55;3.20;99.90
2625;DHT22;1322;53.256;10.386;2023-04-06T05:20:21;3.30;99.90
2625;DHT22;1322;53.256;10.386;2023-04-06T05:22:46;3.50;99.90
2625;DHT22;1322;53.256;10.386;2023-04-06T05:25:13;3.70;99.90
2625;DHT22;1322;53.256;10.386;2023-04-06T05:27:39;3.80;99.90
2625;DHT22;1322;53.256;10.386;2023-04-06T05:30:06;3.90;99.90
2625;DHT22;1322;53.256;10.386;2023-04-06T05:32:31;4.20;99.90
2625;DHT22;1322;53.256;10.386;2023-04-06T05:34:57;4.50;99.90
2625;DHT22;1322;53.256;10.386;2023-04-06T05:37:23;4.90;99.90
2625;DHT22;1322;53.256;10.386;2023-04-06T05:39:49;5.10;99.90
2625;DHT22;1322;53.256;10.386;2023-04-06T05:42:15;5.40;99.90
2625;DHT22;1322;53.256;10.386;2023-04-06T05:44:41;5.60;99.90
2625;DHT22;1322;53.256;10.386;2023-04-06T05:47:06;5.80;99.90
2625;DHT22;1322;53.256;10.386;2023-04-06T05:49:32;5.90;99.90
2625;DHT22;1322;53.256;10.386;2023-04-06T05:51:58;6.20;99.90
2625;DHT22;1322;53.256;10.386;2023-04-06T05:54:24;6.40;99.90
2625;DHT22;1322;53.256;10.386;2023-04-06T05:56:49;6.50;99.90
2625;DHT22;1322;53.256;10.386;2023-04-06T05:59:15;6.40;99.90
2625;DHT22;1322;53.256;10.386;2023-04-06T06:01:41;6.40;99.90
2625;DHT22;1322;53.256;10.386;2023-04-06T06:04:07;6.40;99.90
2625;DHT22;1322;53.256;10.386;2023-04-06T06:06:32;6.50;99.90
2625;DHT22;1322;53.256;10.386;2023-04-06T06:08:58;6.40;99.90
2625;DHT22;1322;53.256;10.386;2023-04-06T06:11:29;6.80;99.90
2625;DHT22;1322;53.256;10.386;2023-04-06T06:13:54;6.90;99.90
2625;DHT22;1322;53.256;10.386;2023-04-06T06:16:20;6.90;99.90
2625;DHT22;1322;53.256;10.386;2023-04-06T06:18:46;6.90;99.90
2625;DHT22;1322;53.256;10.386;2023-04-06T06:21:11;7.30;99.90
2625;DHT22;1322;53.256;10.386;2023-04-06T06:23:38;7.50;99.90
2625;DHT22;1322;53.256;10.386;2023-04-06T06:26:04;7.70;99.90
2625;DHT22;1322;53.256;10.386;2023-04-06T06:28:30;8.10;99.90
2625;DHT22;1322;53.256;10.386;2023-04-06T06:30:56;8.50;99.90
2625;DHT22;1322;53.256;10.386;2023-04-06T06:33:22;8.50;99.90
2625;DHT22;1322;53.256;10.386;2023-04-06T06:35:48;8.10;99.90
2625;DHT22;1322;53.256;10.386;2023-04-06T06:38:16;7.90;99.90
2625;DHT22;1322;53.256;10.386;2023-04-06T06:40:42;7.90;99.90
2625;DHT22;1322;53.256;10.386;2023-04-06T06:43:08;8.20;99.90
2625;DHT22;1322;53.256;10.386;2023-04-06T06:45:34;8.50;99.90
2625;DHT22;1322;53.256;10.386;2023-04-06T06:47:59;8.50;99.90
2625;DHT22;1322;53.256;10.386;2023-04-06T06:50:25;8.10;99.90
2625;DHT22;1322;53.256;10.386;2023-04-06T06:52:51;8.00;99.90
2625;DHT22;1322;53.256;10.386;2023-04-06T06:55:17;7.90;99.90
2625;DHT22;1322;53.256;10.386;2023-04-06T06:57:44;7.90;99.90
2625;DHT22;1322;53.256;10.386;2023-04-06T07:00:12;7.70;99.90
2625;DHT22;1322;53.256;10.386;2023-04-06T07:02:38;7.80;99.90
2625;DHT22;1322;53.256;10.386;2023-04-06T07:05:05;8.30;99.90
2625;DHT22;1322;53.256;10.386;2023-04-06T07:07:33;8.30;99.90
2625;DHT22;1322;53.256;10.386;2023-04-06T07:10:00;8.40;99.90
2625;DHT22;1322;53.256;10.386;2023-04-06T07:12:26;8.20;99.90
2625;DHT22;1322;53.256;10.386;2023-04-06T07:14:52;8.40;99.90
2625;DHT22;1322;53.256;10.386;2023-04-06T07:17:17;8.90;99.90
2625;DHT22;1322;53.256;10.386;2023-04-06T07:19:43;9.20;99.90
2625;DHT22;1322;53.256;10.386;2023-04-06T07:22:09;9.30;99.90
2625;DHT22;1322;53.256;10.386;2023-04-06T07:24:34;8.90;99.90
2625;DHT22;1322;53.256;10.386;2023-04-06T07:27:00;9.00;99.90
2625;DHT22;1322;53.256;10.386;2023-04-06T07:29:26;9.10;99.90
2625;DHT22;1322;53.256;10.386;2023-04-06T07:31:53;9.30;99.90
2625;DHT22;1322;53.256;10.386;2023-04-06T07:34:19;9.50;99.90
2625;DHT22;1322;53.256;10.386;2023-04-06T07:36:44;9.30;99.90
2625;DHT22;1322;53.256;10.386;2023-04-06T07:39:10;9.40;99.90
2625;DHT22;1322;53.256;10.386;2023-04-06T07:41:36;9.70;99.90
2625;DHT22;1322;53.256;10.386;2023-04-06T07:44:02;9.80;99.90
2625;DHT22;1322;53.256;10.386;2023-04-06T07:46:28;9.50;99.90
2625;DHT22;1322;53.256;10.386;2023-04-06T07:48:54;9.60;99.90
2625;DHT22;1322;53.256;10.386;2023-04-06T07:51:20;9.70;99.90
2625;DHT22;1322;53.256;10.386;2023-04-06T07:53:45;9.80;99.90
2625;DHT22;1322;53.256;10.386;2023-04-06T07:56:11;9.90;99.90
2625;DHT22;1322;53.256;10.386;2023-04-06T07:58:37;9.90;99.90
2625;DHT22;1322;53.256;10.386;2023-04-06T08:01:03;9.90;99.90
2625;DHT22;1322;53.256;10.386;2023-04-06T08:03:29;10.10;99.90
2625;DHT22;1322;53.256;10.386;2023-04-06T08:05:55;10.40;99.90
2625;DHT22;1322;53.256;10.386;2023-04-06T08:08:21;10.40;99.90
2625;DHT22;1322;53.256;10.386;2023-04-06T08:10:48;10.50;99.90
2625;DHT22;1322;53.256;10.386;2023-04-06T08:13:14;10.40;99.90
2625;DHT22;1322;53.256;10.386;2023-04-06T08:15:40;10.60;99.90
2625;DHT22;1322;53.256;10.386;2023-04-06T08:18:06;10.50;99.90
2625;DHT22;1322;53.256;10.386;2023-04-06T08:20:31;10.40;99.90
2625;DHT22;1322;53.256;10.386;2023-04-06T08:22:57;10.60;99.90
2625;DHT22;1322;53.256;10.386;2023-04-06T08:25:23;10.70;99.90
2625;DHT22;1322;53.256;10.386;2023-04-06T08:27:48;10.80;99.90
2625;DHT22;1322;53.256;10.386;2023-04-06T08:30:14;10.60;99.90
2625;DHT22;1322;53.256;10.386;2023-04-06T08:32:44;10.70;99.90
2625;DHT22;1322;53.256;10.386;2023-04-06T08:35:11;10.80;99.90
2625;DHT22;1322;53.256;10.386;2023-04-06T08:37:37;10.70;99.90
2625;DHT22;1322;53.256;10.386;2023-04-06T08:40:03;10.80;99.90
2625;DHT22;1322;53.256;10.386;2023-04-06T08:42:32;11.10;99.90
2625;DHT22;1322;53.256;10.386;2023-04-06T08:44:59;10.80;99.90
2625;DHT22;1322;53.256;10.386;2023-04-06T08:47:26;10.90;99.90
2625;DHT22;1322;53.256;10.386;2023-04-06T08:49:53;11.10;99.90
2625;DHT22;1322;53.256;10.386;2023-04-06T08:52:20;11.10;99.90
2625;DHT22;1322;53.256;10.386;2023-04-06T08:54:45;10.80;99.90
2625;DHT22;1322;53.256;10.386;2023-04-06T08:57:12;10.70;99.90
2625;DHT22;1322;53.256;10.386;2023-04-06T08:59:39;10.80;99.90
2625;DHT22;1322;53.256;10.386;2023-04-06T09:02:14;10.80;99.90
2625;DHT22;1322;53.256;10.386;2023-04-06T09:04:41;10.70;99.90
2625;DHT22;1322;53.256;10.386;2023-04-06T09:07:07;10.90;99.90
2625;DHT22;1322;53.256;10.386;2023-04-06T09:09:32;10.90;99.90
2625;DHT22;1322;53.256;10.386;2023-04-06T09:11:58;11.10;99.90
2625;DHT22;1322;53.256;10.386;2023-04-06T09:14:38;11.00;99.90
2625;DHT22;1322;53.256;10.386;2023-04-06T09:17:05;11.10;99.90
2625;DHT22;1322;53.256;10.386;2023-04-06T09:19:31;11.10;99.90
2625;DHT22;1322;53.256;10.386;2023-04-06T09:22:06;11.30;99.90
2625;DHT22;1322;53.256;10.386;2023-04-06T09:24:49;11.30;99.90
2625;DHT22;1322;53.256;10.386;2023-04-06T09:27:15;11.40;99.90
2625;DHT22;1322;53.256;10.386;2023-04-06T09:29:41;11.40;98.90
2625;DHT22;1322;53.256;10.386;2023-04-06T09:32:09;11.40;99.90
2625;DHT22;1322;53.256;10.386;2023-04-06T09:34:42;11.30;99.40
2625;DHT22;1322;53.256;10.386;2023-04-06T09:37:18;11.60;99.90
2625;DHT22;1322;53.256;10.386;2023-04-06T09:39:45;11.60;99.20
2625;DHT22;1322;53.256;10.386;2023-04-06T09:42:23;11.40;99.30
2625;DHT22;1322;53.256;10.386;2023-04-06T09:44:50;11.10;99.00
2625;DHT22;1322;53.256;10.386;2023-04-06T09:47:17;11.10;99.70
2625;DHT22;1322;53.256;10.386;2023-04-06T09:49:43;11.00;99.30
2625;DHT22;1322;53.256;10.386;2023-04-06T09:52:11;10.80;98.80
2625;DHT22;1322;53.256;10.386;2023-04-06T09:54:38;10.80;98.70
2625;DHT22;1322;53.256;10.386;2023-04-06T09:57:07;10.80;98.80
2625;DHT22;1322;53.256;10.386;2023-04-06T10:05:29;10.80;99.00
2625;DHT22;1322;53.256;10.386;2023-04-06T10:08:00;11.10;99.70
2625;DHT22;1322;53.256;10.386;2023-04-06T10:10:30;11.20;99.20
2625;DHT22;1322;53.256;10.386;2023-04-06T10:12:56;10.90;98.90
2625;DHT22;1322;53.256;10.386;2023-04-06T10:15:22;10.90;98.90
2625;DHT22;1322;53.256;10.386;2023-04-06T10:17:48;10.90;99.10
2625;DHT22;1322;53.256;10.386;2023-04-06T10:23:18;11.00;99.90
2625;DHT22;1322;53.256;10.386;2023-04-06T10:25:53;11.20;99.90
2625;DHT22;1322;53.256;10.386;2023-04-06T10:28:20;11.30;99.00
2625;DHT22;1322;53.256;10.386;2023-04-06T10:30:45;11.20;99.30
2625;DHT22;1322;53.256;10.386;2023-04-06T10:33:19;11.10;99.60
2625;DHT22;1322;53.256;10.386;2023-04-06T10:35:45;11.20;99.90
2625;DHT22;1322;53.256;10.386;2023-04-06T10:38:12;11.40;99.90
2625;DHT22;1322;53.256;10.386;2023-04-06T10:40:40;11.40;99.30
2625;DHT22;1322;53.256;10.386;2023-04-06T10:43:12;11.40;99.40
2625;DHT22;1322;53.256;10.386;2023-04-06T10:45:38;11.70;99.80
2625;DHT22;1322;53.256;10.386;2023-04-06T10:48:18;11.70;98.00
2625;DHT22;1322;53.256;10.386;2023-04-06T10:50:49;11.60;98.70
2625;DHT22;1322;53.256;10.386;2023-04-06T10:53:25;11.80;99.20
2625;DHT22;1322;53.256;10.386;2023-04-06T10:55:54;11.60;99.00
2625;DHT22;1322;53.256;10.386;2023-04-06T10:58:24;11.50;99.10
2625;DHT22;1322;53.256;10.386;2023-04-06T11:00:51;11.80;99.90
2625;DHT22;1322;53.256;10.386;2023-04-06T11:03:17;11.70;98.90
2625;DHT22;1322;53.256;10.386;2023-04-06T11:05:47;11.80;99.10
2625;DHT22;1322;53.256;10.386;2023-04-06T11:08:32;11.80;98.60
2625;DHT22;1322;53.256;10.386;2023-04-06T11:11:11;11.60;98.00
2625;DHT22;1322;53.256;10.386;2023-04-06T11:13:44;11.60;98.10
2625;DHT22;1322;53.256;10.386;2023-04-06T11:16:20;11.70;98.60
2625;DHT22;1322;53.256;10.386;2023-04-06T11:18:52;11.70;98.10
2625;DHT22;1322;53.256;10.386;2023-04-06T11:21:39;11.60;98.30
2625;DHT22;1322;53.256;10.386;2023-04-06T11:26:47;11.70;99.00
2625;DHT22;1322;53.256;10.386;2023-04-06T11:29:25;11.70;98.30
2625;DHT22;1322;53.256;10.386;2023-04-06T11:31:53;12.00;99.60
2625;DHT22;1322;53.256;10.386;2023-04-06T11:34:23;12.10;98.30
2625;DHT22;1322;53.256;10.386;2023-04-06T11:36:55;12.20;98.40
2625;DHT22;1322;53.256;10.386;2023-04-06T11:39:23;12.30;98.00
2625;DHT22;1322;53.256;10.386;2023-04-06T11:41:51;12.30;98.20
2625;DHT22;1322;53.256;10.386;2023-04-06T11:44:35;12.40;98.90
2625;DHT22;1322;53.256;10.386;2023-04-06T11:47:02;12.10;97.70
2625;DHT22;1322;53.256;10.386;2023-04-06T11:49:29;12.30;98.40
2625;DHT22;1322;53.256;10.386;2023-04-06T11:51:56;12.30;98.40
2625;DHT22;1322;53.256;10.386;2023-04-06T11:54:36;12.40;98.30
2625;DHT22;1322;53.256;10.386;2023-04-06T11:57:04;12.50;98.30
2625;DHT22;1322;53.256;10.386;2023-04-06T11:59:31;12.50;97.80
2625;DHT22;1322;53.256;10.386;2023-04-06T12:02:00;12.50;98.00
2625;DHT22;1322;53.256;10.386;2023-04-06T12:04:26;12.40;97.60
2625;DHT22;1322;53.256;10.386;2023-04-06T12:06:52;12.40;97.60
2625;DHT22;1322;53.256;10.386;2023-04-06T12:09:18;12.40;97.70
2625;DHT22;1322;53.256;10.386;2023-04-06T12:11:44;12.40;98.30
2625;DHT22;1322;53.256;10.386;2023-04-06T12:14:10;12.30;98.00
2625;DHT22;1322;53.256;10.386;2023-04-06T12:16:36;12.40;98.00
2625;DHT22;1322;53.256;10.386;2023-04-06T12:19:01;12.50;97.90
2625;DHT22;1322;53.256;10.386;2023-04-06T12:21:27;12.50;98.30
2625;DHT22;1322;53.256;10.386;2023-04-06T12:23:54;12.50;98.90
2625;DHT22;1322;53.256;10.386;2023-04-06T12:26:20;12.60;98.80
2625;DHT22;1322;53.256;10.386;2023-04-06T12:28:46;12.80;98.20
2625;DHT22;1322;53.256;10.386;2023-04-06T12:31:22;12.70;97.60
2625;DHT22;1322;53.256;10.386;2023-04-06T12:33:51;12.40;98.30
2625;DHT22;1322;53.256;10.386;2023-04-06T12:36:19;12.40;98.30
2625;DHT22;1322;53.256;10.386;2023-04-06T12:38:48;12.30;98.70
2625;DHT22;1322;53.256;10.386;2023-04-06T12:41:14;12.20;98.70
2625;DHT22;1322;53.256;10.386;2023-04-06T12:43:41;12.40;99.00
2625;DHT22;1322;53.256;10.386;2023-04-06T12:46:08;12.40;99.10
2625;DHT22;1322;53.256;10.386;2023-04-06T12:48:34;12.50;98.70
2625;DHT22;1322;53.256;10.386;2023-04-06T12:51:06;12.30;98.90
2625;DHT22;1322;53.256;10.386;2023-04-06T12:53:33;12.20;99.00
2625;DHT22;1322;53.256;10.386;2023-04-06T12:55:59;12.20;98.70
2625;DHT22;1322;53.256;10.386;2023-04-06T12:58:26;12.30;99.00
2625;DHT22;1322;53.256;10.386;2023-04-06T13:00:52;12.30;98.70
2625;DHT22;1322;53.256;10.386;2023-04-06T13:03:19;12.50;98.60
2625;DHT22;1322;53.256;10.386;2023-04-06T13:05:49;12.60;99.50
2625;DHT22;1322;53.256;10.386;2023-04-06T13:08:16;12.70;99.40
2625;DHT22;1322;53.256;10.386;2023-04-06T13:10:49;12.70;99.00
2625;DHT22;1322;53.256;10.386;2023-04-06T13:13:16;12.70;98.80
2625;DHT22;1322;53.256;10.386;2023-04-06T13:15:41;12.60;99.10
2625;DHT22;1322;53.256;10.386;2023-04-06T13:18:08;12.50;98.00
2625;DHT22;1322;53.256;10.386;2023-04-06T13:20:34;12.50;98.40
2625;DHT22;1322;53.256;10.386;2023-04-06T13:23:00;12.40;98.50
2625;DHT22;1322;53.256;10.386;2023-04-06T13:25:26;12.30;98.70
2625;DHT22;1322;53.256;10.386;2023-04-06T13:27:51;12.30;98.30
2625;DHT22;1322;53.256;10.386;2023-04-06T13:30:17;12.30;98.40
2625;DHT22;1322;53.256;10.386;2023-04-06T13:32:43;12.40;99.30
2625;DHT22;1322;53.256;10.386;2023-04-06T13:35:09;12.40;98.90
2625;DHT22;1322;53.256;10.386;2023-04-06T13:37:35;12.70;98.90
2625;DHT22;1322;53.256;10.386;2023-04-06T13:40:02;12.70;99.30
2625;DHT22;1322;53.256;10.386;2023-04-06T13:42:28;12.70;98.30
2625;DHT22;1322;53.256;10.386;2023-04-06T13:44:54;12.60;98.40
2625;DHT22;1322;53.256;10.386;2023-04-06T13:47:19;12.70;98.40
2625;DHT22;1322;53.256;10.386;2023-04-06T13:49:46;12.80;97.90
2625;DHT22;1322;53.256;10.386;2023-04-06T13:52:12;12.90;98.40
2625;DHT22;1322;53.256;10.386;2023-04-06T13:54:38;12.90;98.40
2625;DHT22;1322;53.256;10.386;2023-04-06T13:57:04;13.00;98.40
2625;DHT22;1322;53.256;10.386;2023-04-06T13:59:37;12.90;97.40
2625;DHT22;1322;53.256;10.386;2023-04-06T14:02:04;12.80;97.80
2625;DHT22;1322;53.256;10.386;2023-04-06T14:04:30;12.80;97.20
2625;DHT22;1322;53.256;10.386;2023-04-06T14:07:00;12.70;97.80
2625;DHT22;1322;53.256;10.386;2023-04-06T14:09:26;12.80;98.80
2625;DHT22;1322;53.256;10.386;2023-04-06T14:11:52;12.90;99.10
2625;DHT22;1322;53.256;10.386;2023-04-06T14:14:18;13.00;98.40
2625;DHT22;1322;53.256;10.386;2023-04-06T14:16:44;13.00;98.00
2625;DHT22;1322;53.256;10.386;2023-04-06T14:19:11;12.80;97.50
2625;DHT22;1322;53.256;10.386;2023-04-06T14:21:43;12.90;98.30
2625;DHT22;1322;53.256;10.386;2023-04-06T14:24:10;13.00;98.00
2625;DHT22;1322;53.256;10.386;2023-04-06T14:26:36;12.70;97.30
2625;DHT22;1322;53.256;10.386;2023-04-06T14:29:03;12.70;97.50
2625;DHT22;1322;53.256;10.386;2023-04-06T14:31:30;12.50;97.20
2625;DHT22;1322;53.256;10.386;2023-04-06T14:33:56;12.40;97.80
2625;DHT22;1322;53.256;10.386;2023-04-06T14:36:22;12.40;97.60
2625;DHT22;1322;53.256;10.386;2023-04-06T14:38:48;12.50;98.00
2625;DHT22;1322;53.256;10.386;2023-04-06T14:41:17;12.50;97.90
2625;DHT22;1322;53.256;10.386;2023-04-06T14:43:45;12.60;98.40
2625;DHT22;1322;53.256;10.386;2023-04-06T14:46:11;12.80;98.80
2625;DHT22;1322;53.256;10.386;2023-04-06T14:48:37;12.80;97.80
2625;DHT22;1322;53.256;10.386;2023-04-06T14:51:03;12.60;97.40
2625;DHT22;1322;53.256;10.386;2023-04-06T14:53:29;12.50;97.80
2625;DHT22;1322;53.256;10.386;2023-04-06T14:55:55;12.60;97.80
2625;DHT22;1322;53.256;10.386;2023-04-06T14:58:22;12.60;98.20
2625;DHT22;1322;53.256;10.386;2023-04-06T15:00:48;12.60;98.10
2625;DHT22;1322;53.256;10.386;2023-04-06T15:03:15;12.60;98.10
2625;DHT22;1322;53.256;10.386;2023-04-06T15:05:44;12.50;97.70
2625;DHT22;1322;53.256;10.386;2023-04-06T15:08:09;12.40;97.80
2625;DHT22;1322;53.256;10.386;2023-04-06T15:10:35;12.20;98.20
2625;DHT22;1322;53.256;10.386;2023-04-06T15:13:04;12.20;97.60
2625;DHT22;1322;53.256;10.386;2023-04-06T15:15:30;12.20;97.70
2625;DHT22;1322;53.256;10.386;2023-04-06T15:17:56;12.30;97.60
2625;DHT22;1322;53.256;10.386;2023-04-06T15:20:21;12.40;98.10
2625;DHT22;1322;53.256;10.386;2023-04-06T15:22:47;12.50;98.80
2625;DHT22;1322;53.256;10.386;2023-04-06T15:25:13;12.60;98.70
2625;DHT22;1322;53.256;10.386;2023-04-06T15:27:38;12.60;99.00
2625;DHT22;1322;53.256;10.386;2023-04-06T15:30:04;12.80;98.80
2625;DHT22;1322;53.256;10.386;2023-04-06T15:32:30;12.90;98.60
2625;DHT22;1322;53.256;10.386;2023-04-06T15:34:57;12.80;97.70
2625;DHT22;1322;53.256;10.386;2023-04-06T15:37:23;12.80;98.00
2625;DHT22;1322;53.256;10.386;2023-04-06T15:39:48;12.60;97.50
2625;DHT22;1322;53.256;10.386;2023-04-06T15:42:14;12.60;97.20
2625;DHT22;1322;53.256;10.386;2023-04-06T15:44:40;12.70;97.30
2625;DHT22;1322;53.256;10.386;2023-04-06T15:47:06;12.80;97.60
2625;DHT22;1322;53.256;10.386;2023-04-06T15:49:32;12.80;97.80
2625;DHT22;1322;53.256;10.386;2023-04-06T15:51:58;12.70;97.60
2625;DHT22;1322;53.256;10.386;2023-04-06T15:54:23;12.70;97.70
2625;DHT22;1322;53.256;10.386;2023-04-06T15:56:49;12.70;98.20
2625;DHT22;1322;53.256;10.386;2023-04-06T15:59:15;12.70;98.20
2625;DHT22;1322;53.256;10.386;2023-04-06T16:01:41;12.60;97.70
2625;DHT22;1322;53.256;10.386;2023-04-06T16:04:09;12.70;97.80